sensor_id;sensor_type;location;lat;lon;timestamp;P1;durP1;ratioP1;P2;durP2;ratioP2
59681;SDS011;45548;39.530;-9.118;2022-07-29T07:29:44;39.50;;;14.93;;
59681;SDS011;45548;39.530;-9.118;2022-07-29T07:32:10;34.55;;;14.27;;
59681;SDS011;45548;39.530;-9.118;2022-07-29T07:34:38;39.83;;;15.63;;
59681;SDS011;45548;39.530;-9.118;2022-07-29T07:37:03;43.40;;;14.70;;
59681;SDS011;45548;39.530;-9.118;2022-07-29T07:39:29;30.08;;;14.32;;
59681;SDS011;45548;39.530;-9.118;2022-07-29T07:41:54;30.58;;;12.10;;
59681;SDS011;45548;39.530;-9.118;2022-07-29T07:44:20;26.63;;;11.32;;
59681;SDS011;45548;39.530;-9.118;2022-07-29T07:46:45;26.15;;;10.40;;
59681;SDS011;45548;39.530;-9.118;2022-07-29T07:49:11;31.35;;;12.27;;
59681;SDS011;45548;39.530;-9.118;2022-07-29T07:51:37;34.67;;;13.43;;
59681;SDS011;45548;39.530;-9.118;2022-07-29T07:54:03;31.15;;;11.65;;
59681;SDS011;45548;39.530;-9.118;2022-07-29T07:56:29;35.05;;;12.82;;
59681;SDS011;45548;39.530;-9.118;2022-07-29T07:58:54;31.50;;;10.68;;
59681;SDS011;45548;39.530;-9.118;2022-07-29T08:01:20;25.05;;;10.95;;
59681;SDS011;45548;39.530;-9.118;2022-07-29T08:03:48;31.77;;;11.88;;
59681;SDS011;45548;39.530;-9.118;2022-07-29T08:06:14;25.63;;;10.10;;
59681;SDS011;45548;39.530;-9.118;2022-07-29T08:08:40;24.15;;;9.13;;
59681;SDS011;45548;39.530;-9.118;2022-07-29T08:11:06;26.65;;;9.05;;
59681;SDS011;45548;39.530;-9.118;2022-07-29T08:13:31;24.48;;;10.05;;
59681;SDS011;45548;39.530;-9.118;2022-07-29T08:15:57;23.75;;;8.43;;
59681;SDS011;45548;39.530;-9.118;2022-07-29T08:18:35;18.10;;;7.70;;
59681;SDS011;45548;39.530;-9.118;2022-07-29T08:21:01;17.70;;;7.70;;
59681;SDS011;45548;39.530;-9.118;2022-07-29T08:23:27;13.57;;;6.30;;
59681;SDS011;45548;39.530;-9.118;2022-07-29T08:25:59;11.65;;;6.53;;
59681;SDS011;45548;39.530;-9.118;2022-07-29T08:28:25;10.70;;;6.70;;
59681;SDS011;45548;39.530;-9.118;2022-07-29T08:30:51;13.82;;;7.45;;
59681;SDS011;45548;39.530;-9.118;2022-07-29T08:33:17;13.80;;;5.90;;
59681;SDS011;45548;39.530;-9.118;2022-07-29T08:35:43;14.77;;;6.25;;
59681;SDS011;45548;39.530;-9.118;2022-07-29T08:38:08;12.13;;;6.60;;
59681;SDS011;45548;39.530;-9.118;2022-07-29T08:40:35;12.07;;;6.70;;
59681;SDS011;45548;39.530;-9.118;2022-07-29T08:43:04;12.63;;;6.57;;
59681;SDS011;45548;39.530;-9.118;2022-07-29T08:45:35;13.48;;;6.20;;
59681;SDS011;45548;39.530;-9.118;2022-07-29T08:48:08;19.42;;;7.22;;
59681;SDS011;45548;39.530;-9.118;2022-07-29T08:50:35;12.68;;;6.25;;
59681;SDS011;45548;39.530;-9.118;2022-07-29T08:53:01;13.48;;;6.57;;
59681;SDS011;45548;39.530;-9.118;2022-07-29T08:55:28;11.40;;;7.40;;
59681;SDS011;45548;39.530;-9.118;2022-07-29T08:57:54;12.90;;;6.30;;
59681;SDS011;45548;39.530;-9.118;2022-07-29T09:00:21;12.20;;;5.93;;
59681;SDS011;45548;39.530;-9.118;2022-07-29T09:02:50;12.60;;;6.90;;
59681;SDS011;45548;39.530;-9.118;2022-07-29T09:05:21;15.73;;;7.28;;
59681;SDS011;45548;39.530;-9.118;2022-07-29T09:07:49;14.23;;;6.65;;
59681;SDS011;45548;39.530;-9.118;2022-07-29T09:10:15;16.48;;;7.72;;
59681;SDS011;45548;39.530;-9.118;2022-07-29T09:12:41;18.20;;;7.55;;
59681;SDS011;45548;39.530;-9.118;2022-07-29T09:15:06;21.73;;;8.68;;
59681;SDS011;45548;39.530;-9.118;2022-07-29T09:17:39;21.90;;;8.32;;
59681;SDS011;45548;39.530;-9.118;2022-07-29T09:20:12;17.95;;;8.00;;
59681;SDS011;45548;39.530;-9.118;2022-07-29T09:22:39;16.55;;;7.60;;
59681;SDS011;45548;39.530;-9.118;2022-07-29T09:25:05;15.45;;;7.63;;
59681;SDS011;45548;39.530;-9.118;2022-07-29T09:27:31;20.23;;;7.03;;
59681;SDS011;45548;39.530;-9.118;2022-07-29T09:29:59;17.08;;;6.88;;
59681;SDS011;45548;39.530;-9.118;2022-07-29T09:32:27;15.77;;;7.22;;
59681;SDS011;45548;39.530;-9.118;2022-07-29T09:40:12;13.65;;;6.20;;
59681;SDS011;45548;39.530;-9.118;2022-07-29T09:42:38;19.23;;;6.63;;
59681;SDS011;45548;39.530;-9.118;2022-07-29T09:45:04;17.08;;;6.88;;
59681;SDS011;45548;39.530;-9.118;2022-07-29T09:47:40;21.77;;;7.13;;
59681;SDS011;45548;39.530;-9.118;2022-07-29T09:50:12;14.93;;;7.05;;
59681;SDS011;45548;39.530;-9.118;2022-07-29T09:52:48;15.32;;;5.95;;
59681;SDS011;45548;39.530;-9.118;2022-07-29T09:55:15;10.77;;;5.22;;
59681;SDS011;45548;39.530;-9.118;2022-07-29T09:57:41;14.35;;;6.43;;
59681;SDS011;45548;39.530;-9.118;2022-07-29T10:02:35;15.15;;;6.70;;
59681;SDS011;45548;39.530;-9.118;2022-07-29T10:05:04;14.02;;;6.75;;
59681;SDS011;45548;39.530;-9.118;2022-07-29T10:08:04;11.82;;;5.13;;
59681;SDS011;45548;39.530;-9.118;2022-07-29T10:12:59;14.82;;;6.18;;
59681;SDS011;45548;39.530;-9.118;2022-07-29T10:15:27;13.80;;;5.75;;
59681;SDS011;45548;39.530;-9.118;2022-07-29T10:17:55;13.43;;;6.05;;
59681;SDS011;45548;39.530;-9.118;2022-07-29T10:20:22;12.95;;;5.50;;
59681;SDS011;45548;39.530;-9.118;2022-07-29T10:22:48;13.43;;;5.93;;
59681;SDS011;45548;39.530;-9.118;2022-07-29T10:25:15;12.57;;;6.30;;
59681;SDS011;45548;39.530;-9.118;2022-07-29T10:27:42;16.63;;;5.97;;
59681;SDS011;45548;39.530;-9.118;2022-07-29T10:30:09;14.38;;;5.93;;
59681;SDS011;45548;39.530;-9.118;2022-07-29T10:32:39;12.50;;;5.10;;
59681;SDS011;45548;39.530;-9.118;2022-07-29T10:35:39;12.80;;;5.30;;
59681;SDS011;45548;39.530;-9.118;2022-07-29T10:38:54;12.57;;;5.38;;
59681;SDS011;45548;39.530;-9.118;2022-07-29T10:44:05;10.20;;;5.10;;
59681;SDS011;45548;39.530;-9.118;2022-07-29T10:46:36;12.35;;;5.68;;
59681;SDS011;45548;39.530;-9.118;2022-07-29T10:49:17;11.82;;;4.97;;
59681;SDS011;45548;39.530;-9.118;2022-07-29T10:57:14;11.27;;;5.72;;
59681;SDS011;45548;39.530;-9.118;2022-07-29T10:59:48;10.20;;;5.43;;
59681;SDS011;45548;39.530;-9.118;2022-07-29T11:05:05;12.77;;;5.35;;
59681;SDS011;45548;39.530;-9.118;2022-07-29T11:07:33;11.30;;;5.13;;
59681;SDS011;45548;39.530;-9.118;2022-07-29T11:23:21;12.02;;;5.60;;
59681;SDS011;45548;39.530;-9.118;2022-07-29T11:31:30;10.43;;;4.88;;
59681;SDS011;45548;39.530;-9.118;2022-07-29T11:34:11;9.90;;;5.57;;
59681;SDS011;45548;39.530;-9.118;2022-07-29T11:39:37;9.43;;;5.22;;
59681;SDS011;45548;39.530;-9.118;2022-07-29T11:47:37;13.40;;;6.18;;
59681;SDS011;45548;39.530;-9.118;2022-07-29T11:50:06;14.15;;;6.95;;
59681;SDS011;45548;39.530;-9.118;2022-07-29T11:52:41;13.48;;;6.05;;
59681;SDS011;45548;39.530;-9.118;2022-07-29T11:55:10;11.52;;;5.90;;
59681;SDS011;45548;39.530;-9.118;2022-07-29T11:57:44;12.68;;;5.80;;
59681;SDS011;45548;39.530;-9.118;2022-07-29T12:00:12;14.07;;;6.80;;
59681;SDS011;45548;39.530;-9.118;2022-07-29T12:02:47;13.82;;;6.30;;
59681;SDS011;45548;39.530;-9.118;2022-07-29T12:05:13;11.45;;;6.25;;
59681;SDS011;45548;39.530;-9.118;2022-07-29T12:07:39;10.85;;;5.25;;
59681;SDS011;45548;39.530;-9.118;2022-07-29T12:10:05;12.73;;;5.88;;
59681;SDS011;45548;39.530;-9.118;2022-07-29T12:12:33;10.27;;;5.18;;
59681;SDS011;45548;39.530;-9.118;2022-07-29T12:15:12;11.98;;;5.13;;
59681;SDS011;45548;39.530;-9.118;2022-07-29T12:17:46;13.13;;;5.57;;
59681;SDS011;45548;39.530;-9.118;2022-07-29T12:20:13;11.02;;;5.30;;
59681;SDS011;45548;39.530;-9.118;2022-07-29T12:22:46;11.18;;;5.28;;
59681;SDS011;45548;39.530;-9.118;2022-07-29T12:25:14;9.93;;;5.13;;
59681;SDS011;45548;39.530;-9.118;2022-07-29T12:27:42;10.20;;;5.00;;
59681;SDS011;45548;39.530;-9.118;2022-07-29T12:30:14;12.43;;;5.82;;
59681;SDS011;45548;39.530;-9.118;2022-07-29T12:32:43;9.05;;;4.90;;
59681;SDS011;45548;39.530;-9.118;2022-07-29T12:35:14;9.77;;;4.97;;
59681;SDS011;45548;39.530;-9.118;2022-07-29T12:37:41;13.47;;;6.67;;
59681;SDS011;45548;39.530;-9.118;2022-07-29T12:40:09;9.23;;;4.50;;
59681;SDS011;45548;39.530;-9.118;2022-07-29T12:42:37;10.82;;;4.57;;
59681;SDS011;45548;39.530;-9.118;2022-07-29T12:45:04;6.97;;;4.20;;
59681;SDS011;45548;39.530;-9.118;2022-07-29T12:47:30;7.18;;;4.40;;
59681;SDS011;45548;39.530;-9.118;2022-07-29T12:50:12;9.10;;;4.45;;
59681;SDS011;45548;39.530;-9.118;2022-07-29T12:52:43;12.23;;;5.20;;
59681;SDS011;45548;39.530;-9.118;2022-07-29T12:55:10;8.82;;;4.47;;
59681;SDS011;45548;39.530;-9.118;2022-07-29T12:57:49;10.40;;;4.97;;
59681;SDS011;45548;39.530;-9.118;2022-07-29T13:00:21;10.77;;;5.05;;
59681;SDS011;45548;39.530;-9.118;2022-07-29T13:02:54;9.60;;;4.75;;
59681;SDS011;45548;39.530;-9.118;2022-07-29T13:05:21;9.13;;;4.28;;
59681;SDS011;45548;39.530;-9.118;2022-07-29T13:07:47;9.57;;;4.40;;
59681;SDS011;45548;39.530;-9.118;2022-07-29T13:10:19;10.40;;;5.13;;
59681;SDS011;45548;39.530;-9.118;2022-07-29T13:13:05;9.23;;;4.55;;
59681;SDS011;45548;39.530;-9.118;2022-07-29T13:15:34;9.30;;;4.22;;
59681;SDS011;45548;39.530;-9.118;2022-07-29T13:18:01;11.43;;;4.93;;
59681;SDS011;45548;39.530;-9.118;2022-07-29T13:20:27;9.07;;;4.65;;
59681;SDS011;45548;39.530;-9.118;2022-07-29T13:22:58;10.73;;;5.25;;
59681;SDS011;45548;39.530;-9.118;2022-07-29T13:25:26;10.27;;;4.43;;
59681;SDS011;45548;39.530;-9.118;2022-07-29T13:27:53;8.13;;;4.85;;
59681;SDS011;45548;39.530;-9.118;2022-07-29T13:30:19;10.93;;;5.00;;
59681;SDS011;45548;39.530;-9.118;2022-07-29T13:32:45;11.18;;;5.22;;
59681;SDS011;45548;39.530;-9.118;2022-07-29T13:35:11;10.00;;;4.68;;
59681;SDS011;45548;39.530;-9.118;2022-07-29T13:37:38;12.57;;;4.70;;
59681;SDS011;45548;39.530;-9.118;2022-07-29T13:40:04;9.10;;;5.03;;
59681;SDS011;45548;39.530;-9.118;2022-07-29T13:42:31;11.55;;;5.13;;
59681;SDS011;45548;39.530;-9.118;2022-07-29T13:44:57;11.85;;;5.40;;
59681;SDS011;45548;39.530;-9.118;2022-07-29T13:47:23;12.35;;;5.50;;
59681;SDS011;45548;39.530;-9.118;2022-07-29T13:49:49;10.65;;;5.10;;
59681;SDS011;45548;39.530;-9.118;2022-07-29T13:52:15;8.07;;;4.53;;
59681;SDS011;45548;39.530;-9.118;2022-07-29T13:54:41;11.48;;;5.28;;
59681;SDS011;45548;39.530;-9.118;2022-07-29T13:57:07;8.63;;;4.78;;
59681;SDS011;45548;39.530;-9.118;2022-07-29T13:59:35;7.07;;;4.38;;
59681;SDS011;45548;39.530;-9.118;2022-07-29T14:02:01;9.10;;;4.47;;
59681;SDS011;45548;39.530;-9.118;2022-07-29T14:04:26;9.88;;;4.45;;
59681;SDS011;45548;39.530;-9.118;2022-07-29T14:06:52;11.57;;;4.53;;
59681;SDS011;45548;39.530;-9.118;2022-07-29T14:09:17;9.57;;;4.85;;
59681;SDS011;45548;39.530;-9.118;2022-07-29T14:11:43;8.70;;;4.97;;
59681;SDS011;45548;39.530;-9.118;2022-07-29T14:14:10;10.43;;;4.68;;
59681;SDS011;45548;39.530;-9.118;2022-07-29T14:16:36;7.38;;;4.53;;
59681;SDS011;45548;39.530;-9.118;2022-07-29T14:19:02;10.85;;;5.22;;
59681;SDS011;45548;39.530;-9.118;2022-07-29T14:21:28;12.43;;;5.70;;
59681;SDS011;45548;39.530;-9.118;2022-07-29T14:23:53;11.43;;;5.32;;
59681;SDS011;45548;39.530;-9.118;2022-07-29T14:26:20;16.33;;;6.93;;
59681;SDS011;45548;39.530;-9.118;2022-07-29T14:28:47;10.43;;;5.47;;
59681;SDS011;45548;39.530;-9.118;2022-07-29T14:31:13;11.27;;;4.97;;
59681;SDS011;45548;39.530;-9.118;2022-07-29T14:33:39;9.77;;;5.40;;
59681;SDS011;45548;39.530;-9.118;2022-07-29T14:36:05;12.10;;;6.20;;
59681;SDS011;45548;39.530;-9.118;2022-07-29T14:38:30;12.50;;;5.78;;
59681;SDS011;45548;39.530;-9.118;2022-07-29T14:40:56;9.73;;;5.45;;
59681;SDS011;45548;39.530;-9.118;2022-07-29T14:43:21;12.68;;;6.10;;
59681;SDS011;45548;39.530;-9.118;2022-07-29T14:45:54;10.57;;;5.88;;
59681;SDS011;45548;39.530;-9.118;2022-07-29T14:48:20;11.90;;;6.32;;
59681;SDS011;45548;39.530;-9.118;2022-07-29T14:50:58;11.80;;;5.88;;
59681;SDS011;45548;39.530;-9.118;2022-07-29T14:53:36;10.88;;;5.95;;
59681;SDS011;45548;39.530;-9.118;2022-07-29T14:56:04;15.02;;;7.32;;
59681;SDS011;45548;39.530;-9.118;2022-07-29T14:58:35;9.82;;;6.07;;
59681;SDS011;45548;39.530;-9.118;2022-07-29T15:01:01;12.60;;;5.85;;
59681;SDS011;45548;39.530;-9.118;2022-07-29T15:04:08;11.80;;;5.85;;
59681;SDS011;45548;39.530;-9.118;2022-07-29T15:06:37;10.73;;;5.22;;
59681;SDS011;45548;39.530;-9.118;2022-07-29T15:09:11;13.50;;;5.88;;
59681;SDS011;45548;39.530;-9.118;2022-07-29T15:11:49;10.60;;;5.75;;
59681;SDS011;45548;39.530;-9.118;2022-07-29T15:14:20;14.30;;;5.90;;
59681;SDS011;45548;39.530;-9.118;2022-07-29T15:17:05;16.13;;;6.20;;
59681;SDS011;45548;39.530;-9.118;2022-07-29T15:19:36;11.25;;;6.25;;
59681;SDS011;45548;39.530;-9.118;2022-07-29T15:22:19;12.27;;;6.30;;
59681;SDS011;45548;39.530;-9.118;2022-07-29T15:24:47;11.43;;;6.43;;
59681;SDS011;45548;39.530;-9.118;2022-07-29T15:27:15;13.68;;;6.78;;
59681;SDS011;45548;39.530;-9.118;2022-07-29T15:29:41;11.63;;;6.95;;
59681;SDS011;45548;39.530;-9.118;2022-07-29T15:32:10;13.90;;;6.85;;
59681;SDS011;45548;39.530;-9.118;2022-07-29T15:34:41;10.35;;;7.13;;
59681;SDS011;45548;39.530;-9.118;2022-07-29T15:37:09;14.47;;;6.53;;
59681;SDS011;45548;39.530;-9.118;2022-07-29T15:39:38;14.13;;;6.45;;
59681;SDS011;45548;39.530;-9.118;2022-07-29T15:42:06;15.60;;;7.28;;
59681;SDS011;45548;39.530;-9.118;2022-07-29T15:44:33;16.08;;;8.02;;
59681;SDS011;45548;39.530;-9.118;2022-07-29T15:47:30;16.27;;;7.53;;
59681;SDS011;45548;39.530;-9.118;2022-07-29T15:49:58;13.93;;;7.28;;
59681;SDS011;45548;39.530;-9.118;2022-07-29T15:52:24;13.70;;;7.07;;
59681;SDS011;45548;39.530;-9.118;2022-07-29T15:54:52;15.13;;;7.78;;
59681;SDS011;45548;39.530;-9.118;2022-07-29T15:57:27;14.55;;;7.57;;
59681;SDS011;45548;39.530;-9.118;2022-07-29T16:02:21;11.95;;;6.40;;
59681;SDS011;45548;39.530;-9.118;2022-07-29T16:04:49;16.33;;;7.63;;
59681;SDS011;45548;39.530;-9.118;2022-07-29T16:07:22;16.55;;;8.02;;
59681;SDS011;45548;39.530;-9.118;2022-07-29T16:10:03;19.75;;;9.15;;
59681;SDS011;45548;39.530;-9.118;2022-07-29T16:12:31;15.07;;;7.68;;
59681;SDS011;45548;39.530;-9.118;2022-07-29T16:15:02;12.40;;;6.80;;
59681;SDS011;45548;39.530;-9.118;2022-07-29T16:17:33;12.93;;;6.55;;
59681;SDS011;45548;39.530;-9.118;2022-07-29T16:20:01;13.43;;;7.72;;
59681;SDS011;45548;39.530;-9.118;2022-07-29T16:22:27;17.00;;;7.00;;
59681;SDS011;45548;39.530;-9.118;2022-07-29T16:24:53;12.98;;;6.40;;
59681;SDS011;45548;39.530;-9.118;2022-07-29T16:27:21;14.02;;;7.05;;
59681;SDS011;45548;39.530;-9.118;2022-07-29T16:29:51;16.58;;;7.20;;
59681;SDS011;45548;39.530;-9.118;2022-07-29T16:32:19;18.33;;;7.25;;
59681;SDS011;45548;39.530;-9.118;2022-07-29T16:35:08;19.48;;;7.40;;
59681;SDS011;45548;39.530;-9.118;2022-07-29T16:37:57;14.80;;;6.38;;
59681;SDS011;45548;39.530;-9.118;2022-07-29T16:40:31;16.02;;;7.57;;
59681;SDS011;45548;39.530;-9.118;2022-07-29T16:46:30;16.45;;;7.28;;
59681;SDS011;45548;39.530;-9.118;2022-07-29T16:52:44;13.40;;;7.15;;
59681;SDS011;45548;39.530;-9.118;2022-07-29T16:55:12;12.35;;;6.40;;
59681;SDS011;45548;39.530;-9.118;2022-07-29T16:57:44;15.07;;;7.63;;
59681;SDS011;45548;39.530;-9.118;2022-07-29T17:00:11;18.60;;;8.02;;
59681;SDS011;45548;39.530;-9.118;2022-07-29T17:02:38;15.07;;;6.97;;
59681;SDS011;45548;39.530;-9.118;2022-07-29T17:05:04;15.43;;;6.47;;
59681;SDS011;45548;39.530;-9.118;2022-07-29T17:07:31;15.43;;;6.53;;
59681;SDS011;45548;39.530;-9.118;2022-07-29T17:09:56;18.70;;;6.80;;
59681;SDS011;45548;39.530;-9.118;2022-07-29T17:12:22;18.45;;;7.13;;
59681;SDS011;45548;39.530;-9.118;2022-07-29T17:14:48;13.05;;;6.93;;
59681;SDS011;45548;39.530;-9.118;2022-07-29T17:17:14;17.05;;;6.50;;
59681;SDS011;45548;39.530;-9.118;2022-07-29T17:19:41;15.88;;;6.30;;
59681;SDS011;45548;39.530;-9.118;2022-07-29T17:22:06;19.30;;;7.13;;
59681;SDS011;45548;39.530;-9.118;2022-07-29T17:24:33;16.50;;;6.13;;
59681;SDS011;45548;39.530;-9.118;2022-07-29T17:26:59;11.75;;;5.90;;
59681;SDS011;45548;39.530;-9.118;2022-07-29T17:29:24;16.02;;;5.82;;
59681;SDS011;45548;39.530;-9.118;2022-07-29T17:31:50;13.48;;;6.50;;
59681;SDS011;45548;39.530;-9.118;2022-07-29T17:34:16;13.93;;;6.25;;
59681;SDS011;45548;39.530;-9.118;2022-07-29T17:36:41;11.02;;;5.57;;
59681;SDS011;45548;39.530;-9.118;2022-07-29T17:39:08;14.10;;;6.07;;
59681;SDS011;45548;39.530;-9.118;2022-07-29T17:41:35;13.32;;;6.43;;
59681;SDS011;45548;39.530;-9.118;2022-07-29T17:47:23;17.05;;;6.05;;
59681;SDS011;45548;39.530;-9.118;2022-07-29T17:53:50;17.70;;;6.95;;
59681;SDS011;45548;39.530;-9.118;2022-07-29T18:00:01;19.05;;;7.95;;
59681;SDS011;45548;39.530;-9.118;2022-07-29T18:10:34;16.48;;;7.07;;
59681;SDS011;45548;39.530;-9.118;2022-07-29T18:40:41;18.13;;;8.35;;
59681;SDS011;45548;39.530;-9.118;2022-07-29T18:43:56;17.23;;;7.90;;
59681;SDS011;45548;39.530;-9.118;2022-07-29T18:50:08;18.90;;;8.50;;
59681;SDS011;45548;39.530;-9.118;2022-07-29T18:57:19;21.50;;;8.55;;
59681;SDS011;45548;39.530;-9.118;2022-07-29T19:07:29;24.80;;;9.57;;
59681;SDS011;45548;39.530;-9.118;2022-07-29T19:09:56;22.48;;;9.45;;
59681;SDS011;45548;39.530;-9.118;2022-07-29T19:12:22;25.92;;;9.63;;
59681;SDS011;45548;39.530;-9.118;2022-07-29T19:14:47;26.95;;;9.15;;
59681;SDS011;45548;39.530;-9.118;2022-07-29T19:17:13;21.75;;;8.95;;
59681;SDS011;45548;39.530;-9.118;2022-07-29T19:19:38;26.33;;;10.02;;
59681;SDS011;45548;39.530;-9.118;2022-07-29T19:22:04;23.60;;;9.60;;
59681;SDS011;45548;39.530;-9.118;2022-07-29T19:24:30;25.20;;;9.30;;
59681;SDS011;45548;39.530;-9.118;2022-07-29T19:26:56;27.90;;;10.05;;
59681;SDS011;45548;39.530;-9.118;2022-07-29T19:29:21;26.70;;;10.40;;
59681;SDS011;45548;39.530;-9.118;2022-07-29T19:31:50;25.98;;;9.77;;
59681;SDS011;45548;39.530;-9.118;2022-07-29T19:34:17;24.17;;;9.07;;
59681;SDS011;45548;39.530;-9.118;2022-07-29T19:36:42;25.83;;;9.70;;
59681;SDS011;45548;39.530;-9.118;2022-07-29T19:39:08;21.67;;;8.60;;
59681;SDS011;45548;39.530;-9.118;2022-07-29T19:41:34;27.83;;;10.50;;
59681;SDS011;45548;39.530;-9.118;2022-07-29T19:44:00;30.45;;;11.50;;
59681;SDS011;45548;39.530;-9.118;2022-07-29T19:46:25;30.40;;;10.98;;
59681;SDS011;45548;39.530;-9.118;2022-07-29T19:48:53;31.30;;;11.27;;
59681;SDS011;45548;39.530;-9.118;2022-07-29T19:51:19;27.05;;;10.70;;
59681;SDS011;45548;39.530;-9.118;2022-07-29T19:53:45;27.63;;;10.10;;
59681;SDS011;45548;39.530;-9.118;2022-07-29T19:56:10;26.42;;;10.13;;
59681;SDS011;45548;39.530;-9.118;2022-07-29T19:58:36;25.35;;;10.23;;
59681;SDS011;45548;39.530;-9.118;2022-07-29T20:01:03;25.50;;;10.70;;
59681;SDS011;45548;39.530;-9.118;2022-07-29T20:03:28;46.88;;;12.23;;
59681;SDS011;45548;39.530;-9.118;2022-07-29T20:05:54;24.10;;;9.18;;
59681;SDS011;45548;39.530;-9.118;2022-07-29T20:08:19;23.95;;;10.13;;
59681;SDS011;45548;39.530;-9.118;2022-07-29T20:10:45;23.63;;;9.40;;
59681;SDS011;45548;39.530;-9.118;2022-07-29T20:13:10;25.75;;;9.90;;
59681;SDS011;45548;39.530;-9.118;2022-07-29T20:15:36;24.42;;;9.48;;
59681;SDS011;45548;39.530;-9.118;2022-07-29T20:18:02;24.33;;;10.23;;
59681;SDS011;45548;39.530;-9.118;2022-07-29T20:20:28;22.35;;;10.38;;
59681;SDS011;45548;39.530;-9.118;2022-07-29T20:22:54;30.13;;;11.70;;
59681;SDS011;45548;39.530;-9.118;2022-07-29T20:25:20;24.77;;;9.90;;
59681;SDS011;45548;39.530;-9.118;2022-07-29T20:27:46;26.58;;;10.68;;
59681;SDS011;45548;39.530;-9.118;2022-07-29T20:30:14;30.33;;;11.82;;
59681;SDS011;45548;39.530;-9.118;2022-07-29T20:32:40;25.15;;;9.38;;
59681;SDS011;45548;39.530;-9.118;2022-07-29T20:35:06;28.13;;;11.68;;
59681;SDS011;45548;39.530;-9.118;2022-07-29T20:37:32;37.22;;;13.10;;
59681;SDS011;45548;39.530;-9.118;2022-07-29T20:39:57;33.22;;;12.77;;
59681;SDS011;45548;39.530;-9.118;2022-07-29T20:42:23;36.15;;;13.15;;
59681;SDS011;45548;39.530;-9.118;2022-07-29T20:44:48;31.40;;;12.15;;
59681;SDS011;45548;39.530;-9.118;2022-07-29T20:47:17;32.53;;;12.85;;
59681;SDS011;45548;39.530;-9.118;2022-07-29T20:50:03;28.58;;;11.60;;
59681;SDS011;45548;39.530;-9.118;2022-07-29T20:52:47;30.65;;;11.50;;
59681;SDS011;45548;39.530;-9.118;2022-07-29T20:55:30;27.25;;;10.50;;
59681;SDS011;45548;39.530;-9.118;2022-07-29T20:57:59;26.92;;;11.63;;
59681;SDS011;45548;39.530;-9.118;2022-07-29T21:00:25;34.95;;;12.00;;
59681;SDS011;45548;39.530;-9.118;2022-07-29T21:03:13;36.03;;;12.00;;
59681;SDS011;45548;39.530;-9.118;2022-07-29T21:05:48;30.77;;;11.13;;
59681;SDS011;45548;39.530;-9.118;2022-07-29T21:08:40;24.40;;;10.77;;
59681;SDS011;45548;39.530;-9.118;2022-07-29T21:11:11;26.65;;;10.82;;
59681;SDS011;45548;39.530;-9.118;2022-07-29T21:13:49;28.48;;;11.13;;
59681;SDS011;45548;39.530;-9.118;2022-07-29T21:16:31;33.42;;;12.98;;
59681;SDS011;45548;39.530;-9.118;2022-07-29T21:19:05;34.72;;;12.70;;
59681;SDS011;45548;39.530;-9.118;2022-07-29T21:21:53;41.45;;;13.00;;
59681;SDS011;45548;39.530;-9.118;2022-07-29T21:24:30;36.97;;;12.00;;
59681;SDS011;45548;39.530;-9.118;2022-07-29T21:27:34;32.20;;;11.80;;
59681;SDS011;45548;39.530;-9.118;2022-07-29T21:30:27;30.60;;;11.35;;
59681;SDS011;45548;39.530;-9.118;2022-07-29T21:32:52;28.63;;;11.32;;
59681;SDS011;45548;39.530;-9.118;2022-07-29T21:35:18;26.95;;;11.60;;
59681;SDS011;45548;39.530;-9.118;2022-07-29T21:37:43;37.08;;;11.48;;
59681;SDS011;45548;39.530;-9.118;2022-07-29T21:40:09;34.78;;;11.38;;
59681;SDS011;45548;39.530;-9.118;2022-07-29T21:42:35;26.30;;;9.90;;
59681;SDS011;45548;39.530;-9.118;2022-07-29T21:45:00;25.98;;;10.43;;
59681;SDS011;45548;39.530;-9.118;2022-07-29T21:47:26;29.33;;;11.15;;
59681;SDS011;45548;39.530;-9.118;2022-07-29T21:49:51;25.88;;;10.05;;
59681;SDS011;45548;39.530;-9.118;2022-07-29T21:52:17;31.20;;;10.23;;
59681;SDS011;45548;39.530;-9.118;2022-07-29T21:54:43;23.65;;;9.52;;
59681;SDS011;45548;39.530;-9.118;2022-07-29T21:57:08;29.52;;;10.27;;
59681;SDS011;45548;39.530;-9.118;2022-07-29T21:59:34;20.48;;;7.82;;
59681;SDS011;45548;39.530;-9.118;2022-07-29T22:01:59;28.20;;;10.20;;
59681;SDS011;45548;39.530;-9.118;2022-07-29T22:04:26;24.23;;;9.50;;
59681;SDS011;45548;39.530;-9.118;2022-07-29T22:06:55;22.42;;;8.60;;
59681;SDS011;45548;39.530;-9.118;2022-07-29T22:09:21;24.95;;;8.75;;
59681;SDS011;45548;39.530;-9.118;2022-07-29T22:11:47;25.02;;;9.35;;
59681;SDS011;45548;39.530;-9.118;2022-07-29T22:14:12;22.65;;;9.05;;
59681;SDS011;45548;39.530;-9.118;2022-07-29T22:16:42;20.05;;;8.43;;
59681;SDS011;45548;39.530;-9.118;2022-07-29T22:19:09;16.13;;;7.32;;
59681;SDS011;45548;39.530;-9.118;2022-07-29T22:21:35;25.05;;;8.60;;
